createdAt,value
2018-09-27T00:01:21.215Z,29.20
2018-09-27T00:03:49.151Z,28.75
2018-09-27T00:06:17.184Z,29.14
2018-09-27T00:08:44.851Z,29.06
2018-09-27T00:11:12.626Z,28.73
2018-09-27T00:13:40.493Z,29.12
2018-09-27T00:16:08.593Z,29.35
2018-09-27T00:18:36.306Z,28.60
2018-09-27T00:21:04.055Z,29.17
2018-09-27T00:23:31.920Z,28.94
2018-09-27T00:25:59.634Z,28.94
2018-09-27T00:28:27.315Z,29.11
2018-09-27T00:30:55.149Z,28.87
2018-09-27T00:33:22.808Z,28.73
2018-09-27T00:35:50.639Z,29.03
2018-09-27T00:38:20.383Z,28.34
2018-09-27T00:40:48.295Z,28.44
2018-09-27T00:43:15.945Z,28.66
2018-09-27T00:45:44.089Z,28.26
2018-09-27T00:48:14.240Z,28.22
2018-09-27T00:50:42.059Z,28.18
2018-09-27T00:53:09.840Z,27.93
2018-09-27T00:55:37.778Z,28.90
2018-09-27T00:58:05.861Z,28.54
2018-09-27T01:00:33.517Z,28.57
2018-09-27T01:03:01.224Z,28.72
2018-09-27T01:05:28.836Z,29.03
2018-09-27T01:07:56.438Z,28.19
2018-09-27T01:10:24.054Z,28.46
2018-09-27T01:12:51.748Z,29.06
2018-09-27T01:15:20.223Z,28.44
2018-09-27T01:17:47.816Z,28.61
2018-09-27T01:20:15.696Z,28.32
2018-09-27T01:22:43.476Z,28.89
2018-09-27T01:25:11.501Z,28.83
2018-09-27T01:27:39.326Z,29.35
2018-09-27T01:30:07.572Z,29.58
2018-09-27T01:32:35.244Z,29.44
2018-09-27T01:35:02.919Z,28.76
2018-09-27T01:37:32.084Z,29.09
2018-09-27T01:39:59.844Z,29.13
2018-09-27T01:42:27.509Z,29.20
2018-09-27T01:44:55.176Z,29.85
2018-09-27T01:47:22.801Z,29.17
2018-09-27T01:49:51.756Z,30.10
2018-09-27T01:52:19.524Z,29.73
2018-09-27T01:54:47.226Z,29.72
2018-09-27T01:57:14.833Z,29.98
2018-09-27T01:59:42.659Z,29.85
2018-09-27T02:02:11.194Z,29.57
2018-09-27T02:04:38.894Z,29.70
2018-09-27T02:07:07.044Z,30.11
2018-09-27T02:09:34.709Z,30.20
2018-09-27T02:12:02.448Z,30.38
2018-09-27T02:14:30.166Z,30.26
2018-09-27T02:16:57.854Z,30.50
2018-09-27T02:19:25.568Z,30.39
2018-09-27T02:21:53.486Z,30.70
2018-09-27T02:24:21.085Z,30.34
2018-09-27T02:26:49.027Z,30.74
2018-09-27T02:29:16.786Z,29.81
2018-09-27T02:31:45.066Z,29.65
2018-09-27T02:34:12.780Z,30.20
2018-09-27T02:36:40.941Z,29.74
2018-09-27T02:39:10.103Z,29.57
2018-09-27T02:41:38.612Z,30.20
2018-09-27T02:44:06.902Z,29.68
2018-09-27T02:46:35.642Z,29.47
2018-09-27T02:49:03.954Z,29.91
2018-09-27T02:51:31.925Z,29.82
2018-09-27T02:53:59.709Z,29.25
2018-09-27T02:56:27.446Z,29.32
2018-09-27T02:58:55.138Z,29.29
2018-09-27T03:01:23.040Z,29.54
2018-09-27T03:03:51.087Z,29.91
2018-09-27T03:06:18.845Z,29.59
2018-09-27T03:08:46.569Z,29.70
2018-09-27T03:11:14.778Z,29.48
2018-09-27T03:13:42.397Z,29.65
2018-09-27T03:16:11.036Z,30.36
2018-09-27T03:18:38.681Z,30.02
2018-09-27T03:21:07.036Z,30.45
2018-09-27T03:23:41.502Z,30.54
2018-09-27T03:26:09.196Z,30.56
2018-09-27T03:28:36.915Z,31.03
2018-09-27T03:31:04.963Z,30.87
2018-09-27T03:33:32.714Z,30.82
2018-09-27T03:36:00.402Z,30.88
2018-09-27T03:38:28.263Z,31.32
2018-09-27T03:40:56.006Z,30.85
2018-09-27T03:43:23.606Z,31.06
2018-09-27T03:45:51.354Z,30.74
2018-09-27T03:48:19.010Z,30.59
2018-09-27T03:50:46.687Z,30.96
2018-09-27T03:53:14.384Z,31.04
2018-09-27T03:55:42.195Z,30.48
2018-09-27T03:58:10.328Z,31.11
2018-09-27T04:00:38.526Z,30.65
2018-09-27T04:03:06.375Z,31.17
2018-09-27T04:05:34.044Z,31.23
2018-09-27T04:08:01.726Z,31.04
2018-09-27T04:10:29.397Z,31.49
2018-09-27T04:12:57.167Z,31.69
2018-09-27T04:15:24.829Z,30.74
2018-09-27T04:17:52.731Z,30.97
2018-09-27T04:20:20.353Z,31.14
2018-09-27T04:22:48.363Z,31.33
2018-09-27T04:25:16.025Z,31.68
2018-09-27T04:27:43.761Z,31.31
2018-09-27T04:30:11.699Z,31.22
2018-09-27T04:32:39.447Z,31.88
2018-09-27T04:35:07.397Z,31.70
2018-09-27T04:37:35.053Z,31.43
2018-09-27T04:40:02.721Z,31.81
2018-09-27T04:42:30.538Z,31.97
2018-09-27T04:44:58.691Z,31.55
2018-09-27T04:47:26.423Z,31.97
2018-09-27T04:49:54.129Z,31.74
2018-09-27T04:52:21.760Z,31.98
2018-09-27T04:54:49.432Z,32.52
2018-09-27T04:57:17.400Z,32.61
2018-09-27T04:59:45.103Z,32.32
2018-09-27T05:02:12.964Z,32.32
2018-09-27T05:04:40.617Z,32.35
2018-09-27T05:07:08.839Z,32.42
2018-09-27T05:09:36.606Z,32.21
2018-09-27T05:12:04.309Z,32.36
2018-09-27T05:14:32.302Z,32.65
2018-09-27T05:16:59.944Z,32.64
2018-09-27T05:19:27.665Z,32.57
2018-09-27T05:21:55.905Z,33.03
2018-09-27T05:24:23.774Z,32.95
2018-09-27T05:26:51.869Z,33.02
2018-09-27T05:29:20.212Z,32.94
2018-09-27T05:31:47.900Z,32.50
2018-09-27T05:34:15.615Z,33.31
2018-09-27T05:36:43.331Z,33.86
2018-09-27T05:39:11.874Z,33.20
2018-09-27T05:41:39.565Z,33.23
2018-09-27T05:44:08.053Z,33.04
2018-09-27T05:46:35.711Z,33.32
2018-09-27T05:49:03.428Z,33.41
2018-09-27T05:51:31.223Z,33.21
2018-09-27T05:53:58.795Z,33.30
2018-09-27T05:56:26.658Z,33.46
2018-09-27T05:58:54.256Z,33.93
2018-09-27T06:01:21.996Z,34.37
2018-09-27T06:03:49.718Z,34.66
2018-09-27T06:06:17.378Z,34.21
2018-09-27T06:08:45.086Z,35.08
2018-09-27T06:11:12.799Z,34.93
2018-09-27T06:13:40.506Z,35.57
2018-09-27T06:16:08.433Z,35.19
2018-09-27T06:18:36.124Z,35.57
2018-09-27T06:21:04.796Z,36.17
2018-09-27T06:23:32.448Z,36.43
2018-09-27T06:26:00.142Z,36.64
2018-09-27T06:28:27.767Z,37.12
2018-09-27T06:30:55.471Z,37.16
2018-09-27T06:33:23.164Z,36.78
2018-09-27T06:35:50.811Z,37.11
2018-09-27T06:38:18.666Z,37.27
2018-09-27T06:40:46.385Z,37.44
2018-09-27T06:43:14.863Z,37.82
2018-09-27T06:45:43.927Z,38.05
2018-09-27T06:48:11.628Z,38.77
2018-09-27T06:50:40.437Z,38.78
2018-09-27T06:53:08.087Z,38.71
2018-09-27T06:55:35.857Z,39.31
2018-09-27T06:58:03.381Z,39.74
2018-09-27T07:00:31.323Z,40.02
2018-09-27T07:03:00.118Z,39.62
2018-09-27T07:05:29.104Z,39.56
2018-09-27T07:07:57.711Z,40.03
2018-09-27T07:10:25.495Z,39.91
2018-09-27T07:12:53.242Z,39.72
2018-09-27T07:15:21.826Z,39.73
2018-09-27T07:17:49.535Z,40.23
2018-09-27T07:20:17.274Z,40.86
2018-09-27T07:22:45.043Z,40.43
2018-09-27T07:25:13.968Z,40.85
2018-09-27T07:27:41.741Z,41.22
2018-09-27T07:30:09.521Z,41.02
2018-09-27T07:32:37.315Z,41.68
2018-09-27T07:35:05.087Z,41.44
2018-09-27T07:37:32.920Z,41.38
2018-09-27T07:40:00.703Z,41.35
2018-09-27T07:42:28.655Z,41.33
2018-09-27T07:45:00.288Z,41.95
2018-09-27T07:47:28.318Z,42.75
2018-09-27T07:49:55.978Z,43.41
2018-09-27T07:52:23.693Z,43.16
2018-09-27T07:54:51.461Z,43.65
2018-09-27T07:57:25.401Z,42.96
2018-09-27T07:59:53.700Z,43.04
2018-09-27T08:02:23.607Z,42.97
2018-09-27T08:04:55.111Z,43.30
2018-09-27T08:07:22.831Z,43.10
2018-09-27T08:09:50.685Z,42.77
2018-09-27T08:12:18.495Z,42.89
2018-09-27T08:14:46.240Z,42.51
2018-09-27T08:17:13.977Z,41.61
2018-09-27T08:19:41.714Z,42.11
2018-09-27T08:22:09.901Z,40.99
2018-09-27T08:24:37.566Z,40.68
2018-09-27T08:27:05.310Z,41.23
2018-09-27T08:29:32.971Z,41.33
2018-09-27T08:32:00.937Z,40.76
2018-09-27T08:34:28.944Z,41.09
2018-09-27T08:36:56.648Z,44.01
2018-09-27T08:39:24.341Z,44.07
2018-09-27T08:41:52.044Z,43.24
2018-09-27T08:44:19.715Z,45.87
2018-09-27T08:46:47.395Z,46.68
2018-09-27T08:49:16.223Z,46.45
2018-09-27T08:51:44.093Z,46.16
2018-09-27T08:54:11.802Z,45.97
2018-09-27T08:56:39.475Z,46.88
2018-09-27T08:59:08.236Z,46.51
2018-09-27T09:01:36.074Z,46.74
2018-09-27T09:04:03.795Z,46.62
2018-09-27T09:06:31.527Z,46.15
2018-09-27T09:08:59.348Z,45.26
2018-09-27T09:11:27.030Z,44.84
2018-09-27T09:13:54.682Z,44.53
2018-09-27T09:16:22.374Z,45.52
2018-09-27T09:18:50.046Z,45.23
2018-09-27T09:21:17.747Z,45.10
2018-09-27T09:23:45.462Z,45.36
2018-09-27T09:26:13.176Z,45.23
2018-09-27T09:28:40.936Z,45.03
2018-09-27T09:31:08.747Z,44.01
2018-09-27T09:33:36.495Z,44.39
2018-09-27T09:36:04.187Z,43.63
2018-09-27T09:38:31.743Z,43.69
2018-09-27T09:40:59.731Z,44.82
2018-09-27T09:43:27.485Z,46.27
2018-09-27T09:45:55.177Z,44.98
2018-09-27T09:48:22.899Z,45.12
2018-09-27T09:50:50.593Z,45.17
2018-09-27T09:53:18.352Z,45.37
2018-09-27T09:55:46.049Z,46.31
2018-09-27T09:58:13.813Z,44.95
2018-09-27T10:00:41.460Z,45.29
2018-09-27T10:03:09.276Z,44.93
2018-09-27T10:05:36.961Z,46.28
2018-09-27T10:08:04.935Z,44.77
2018-09-27T10:10:32.646Z,44.57
2018-09-27T10:13:00.386Z,43.96
2018-09-27T10:15:28.059Z,45.47
2018-09-27T10:17:55.885Z,46.33
2018-09-27T10:20:23.550Z,45.00
2018-09-27T10:22:51.197Z,44.80
2018-09-27T10:25:19.000Z,45.57
2018-09-27T10:27:46.690Z,42.67
2018-09-27T10:30:14.644Z,42.22
2018-09-27T10:32:42.414Z,40.36
2018-09-27T10:35:10.152Z,39.32
2018-09-27T10:37:37.770Z,40.84
2018-09-27T10:40:05.724Z,42.56
2018-09-27T10:42:33.581Z,41.41
2018-09-27T10:45:01.115Z,39.61
2018-09-27T10:47:28.757Z,37.58
2018-09-27T10:49:56.554Z,36.76
2018-09-27T10:52:24.210Z,37.40
2018-09-27T10:54:51.903Z,38.24
2018-09-27T10:57:20.218Z,36.26
2018-09-27T10:59:48.308Z,34.54
2018-09-27T11:02:15.973Z,34.89
2018-09-27T11:04:44.129Z,35.75
2018-09-27T11:07:11.723Z,38.37
2018-09-27T11:09:39.461Z,40.77
2018-09-27T11:12:07.121Z,39.33
2018-09-27T11:14:34.797Z,40.87
2018-09-27T11:17:02.445Z,39.98
2018-09-27T11:19:30.103Z,39.47
2018-09-27T11:21:57.848Z,39.85
2018-09-27T11:24:25.561Z,41.89
2018-09-27T11:26:53.249Z,41.49
2018-09-27T11:29:26.970Z,38.39
2018-09-27T11:32:00.447Z,34.85
2018-09-27T11:34:28.108Z,31.62
2018-09-27T11:36:55.787Z,27.27
2018-09-27T11:39:23.447Z,28.01
2018-09-27T11:41:51.227Z,28.01
2018-09-27T11:44:18.895Z,29.35
2018-09-27T11:46:46.519Z,30.99
2018-09-27T11:49:14.381Z,32.14
2018-09-27T11:51:41.921Z,32.58
2018-09-27T11:54:09.574Z,28.06
2018-09-27T11:56:37.237Z,26.14
2018-09-27T11:59:04.951Z,21.76
2018-09-27T12:01:32.607Z,20.83
2018-09-27T12:04:00.182Z,20.76
2018-09-27T12:06:27.877Z,20.34
2018-09-27T12:08:55.444Z,21.06
2018-09-27T12:11:23.119Z,22.15
2018-09-27T12:13:50.778Z,19.58
2018-09-27T12:16:18.542Z,18.09
2018-09-27T12:18:46.307Z,17.31
2018-09-27T12:21:13.975Z,15.82
2018-09-27T12:23:42.145Z,15.85
2018-09-27T12:26:09.908Z,17.74
2018-09-27T12:28:37.976Z,19.11
2018-09-27T12:31:05.796Z,17.65
2018-09-27T12:33:33.444Z,16.41
2018-09-27T12:36:01.140Z,17.28
2018-09-27T12:38:28.857Z,17.16
2018-09-27T12:40:56.416Z,16.89
2018-09-27T12:43:24.063Z,16.18
2018-09-27T12:45:51.705Z,17.59
2018-09-27T12:48:19.440Z,18.32
2018-09-27T12:50:47.025Z,18.70
2018-09-27T12:53:14.764Z,19.61
2018-09-27T12:55:42.416Z,18.86
2018-09-27T12:58:10.039Z,17.78
2018-09-27T13:00:37.726Z,18.53
2018-09-27T13:03:05.393Z,16.96
2018-09-27T13:05:33.105Z,19.06
2018-09-27T13:08:00.779Z,18.93
2018-09-27T13:10:28.454Z,16.83
2018-09-27T13:12:56.119Z,17.14
2018-09-27T13:15:23.782Z,19.08
2018-09-27T13:17:51.426Z,17.63
2018-09-27T13:20:19.170Z,16.76
2018-09-27T13:22:46.733Z,17.56
2018-09-27T13:25:14.391Z,16.69
2018-09-27T13:27:42.019Z,16.40
2018-09-27T13:30:09.775Z,15.44
2018-09-27T13:32:37.413Z,15.88
2018-09-27T13:35:05.185Z,15.39
2018-09-27T13:37:32.765Z,16.43
2018-09-27T13:40:00.412Z,14.50
2018-09-27T13:42:28.019Z,15.37
2018-09-27T13:44:55.706Z,14.90
2018-09-27T13:47:23.376Z,16.53
2018-09-27T13:49:51.284Z,17.60
2018-09-27T13:52:18.938Z,16.08
2018-09-27T13:54:46.532Z,17.99
2018-09-27T13:57:14.225Z,16.88
2018-09-27T13:59:41.793Z,16.46
2018-09-27T14:02:09.448Z,16.12
2018-09-27T14:04:37.077Z,14.93
2018-09-27T14:07:04.819Z,13.74
2018-09-27T14:09:32.418Z,12.79
2018-09-27T14:12:00.043Z,13.00
2018-09-27T14:14:27.749Z,12.76
2018-09-27T14:16:55.431Z,12.92
2018-09-27T14:19:23.142Z,12.03
2018-09-27T14:21:50.818Z,12.35
2018-09-27T14:24:18.462Z,13.26
2018-09-27T14:26:46.122Z,12.52
2018-09-27T14:29:13.933Z,11.46
2018-09-27T14:31:41.672Z,11.94
2018-09-27T14:34:09.325Z,12.40
2018-09-27T14:36:37.061Z,13.28
2018-09-27T14:39:07.720Z,11.58
2018-09-27T14:41:35.436Z,11.28
2018-09-27T14:44:03.081Z,12.26
2018-09-27T14:46:30.773Z,12.13
2018-09-27T14:48:58.478Z,11.15
2018-09-27T14:51:26.407Z,11.67
2018-09-27T14:53:54.088Z,11.26
2018-09-27T14:56:21.788Z,10.76
2018-09-27T14:58:49.290Z,10.50
2018-09-27T15:01:16.890Z,10.46
2018-09-27T15:03:44.550Z,10.86
2018-09-27T15:06:12.186Z,10.46
2018-09-27T15:08:39.903Z,10.41
2018-09-27T15:11:07.561Z,10.99
2018-09-27T15:13:35.261Z,10.95
2018-09-27T15:16:03.048Z,11.46
2018-09-27T15:18:30.649Z,11.50
2018-09-27T15:20:58.235Z,11.09
2018-09-27T15:23:25.934Z,12.25
2018-09-27T15:25:53.575Z,12.68
2018-09-27T15:28:21.207Z,13.12
2018-09-27T15:30:48.973Z,12.97
2018-09-27T15:33:16.702Z,13.81
2018-09-27T15:35:44.265Z,14.36
2018-09-27T15:38:12.014Z,16.04
2018-09-27T15:40:39.716Z,18.56
2018-09-27T15:43:07.358Z,22.42
2018-09-27T15:45:35.139Z,23.66
2018-09-27T15:48:02.741Z,26.60
2018-09-27T15:50:30.324Z,28.04
2018-09-27T15:52:57.918Z,30.17
2018-09-27T15:55:25.505Z,31.71
2018-09-27T15:57:53.392Z,33.13
2018-09-27T16:00:21.072Z,33.84
2018-09-27T16:02:48.754Z,35.51
2018-09-27T16:05:16.461Z,35.85
2018-09-27T16:07:44.266Z,37.11
2018-09-27T16:10:12.052Z,37.57
2018-09-27T16:12:39.737Z,38.17
2018-09-27T16:15:07.371Z,39.01
2018-09-27T16:17:35.158Z,40.74
2018-09-27T16:20:02.911Z,41.26
2018-09-27T16:22:30.559Z,43.09
2018-09-27T16:24:58.219Z,43.79
2018-09-27T16:27:26.170Z,44.17
2018-09-27T16:29:53.970Z,45.33
2018-09-27T16:32:21.630Z,46.19
2018-09-27T16:34:49.727Z,46.69
2018-09-27T16:37:17.343Z,48.26
2018-09-27T16:39:45.091Z,48.53
2018-09-27T16:42:12.672Z,48.93
2018-09-27T16:44:40.243Z,49.57
2018-09-27T16:47:08.007Z,50.12
2018-09-27T16:49:35.652Z,49.59
2018-09-27T16:52:03.330Z,50.16
2018-09-27T16:54:30.997Z,51.02
2018-09-27T16:56:58.688Z,51.16
2018-09-27T16:59:26.275Z,51.53
2018-09-27T17:01:53.974Z,51.61
2018-09-27T17:04:21.728Z,51.60
2018-09-27T17:06:49.546Z,52.34
2018-09-27T17:09:17.209Z,52.62
2018-09-27T17:11:44.799Z,52.77
2018-09-27T17:14:12.429Z,53.09
2018-09-27T17:16:40.187Z,52.77
2018-09-27T17:19:07.985Z,53.21
2018-09-27T17:21:35.611Z,53.43
2018-09-27T17:24:03.360Z,53.76
2018-09-27T17:26:30.983Z,54.79
2018-09-27T17:28:58.655Z,54.73
2018-09-27T17:31:30.688Z,55.35
2018-09-27T17:33:58.499Z,55.03
2018-09-27T17:36:26.161Z,55.73
2018-09-27T17:38:53.998Z,56.19
2018-09-27T17:41:21.729Z,56.34
2018-09-27T17:43:49.381Z,56.41
2018-09-27T17:46:18.015Z,57.34
2018-09-27T17:48:45.705Z,57.36
2018-09-27T17:51:13.387Z,56.97
2018-09-27T17:53:41.248Z,57.38
2018-09-27T17:56:09.028Z,57.84
2018-09-27T17:58:37.007Z,57.80
2018-09-27T18:01:04.821Z,57.90
2018-09-27T18:03:32.590Z,58.26
2018-09-27T18:06:00.473Z,58.76
2018-09-27T18:08:28.499Z,59.05
2018-09-27T18:10:56.328Z,59.39
2018-09-27T18:13:25.338Z,59.35
2018-09-27T18:15:53.166Z,59.53
2018-09-27T18:18:20.982Z,61.00
2018-09-27T18:20:48.712Z,59.77
2018-09-27T18:23:16.428Z,61.10
2018-09-27T18:25:44.902Z,61.76
2018-09-27T18:28:12.569Z,62.32
2018-09-27T18:30:40.347Z,62.16
2018-09-27T18:33:08.248Z,62.35
2018-09-27T18:35:35.954Z,62.72
2018-09-27T18:38:03.939Z,62.93
2018-09-27T18:40:31.654Z,63.90
2018-09-27T18:42:59.467Z,64.22
2018-09-27T18:45:27.286Z,64.43
2018-09-27T18:47:55.160Z,64.45
2018-09-27T18:50:22.986Z,65.52
2018-09-27T18:52:51.168Z,65.63
2018-09-27T18:55:19.124Z,65.61
2018-09-27T18:57:47.322Z,65.93
2018-09-27T19:00:15.110Z,66.36
2018-09-27T19:02:42.832Z,66.56
2018-09-27T19:05:10.568Z,66.31
2018-09-27T19:07:38.336Z,67.27
2018-09-27T19:10:06.059Z,66.73
2018-09-27T19:12:33.783Z,67.33
2018-09-27T19:15:01.528Z,67.07
2018-09-27T19:17:29.202Z,67.87
2018-09-27T19:19:56.989Z,68.64
2018-09-27T19:22:24.694Z,68.10
2018-09-27T19:24:52.462Z,68.62
2018-09-27T19:27:20.121Z,69.14
2018-09-27T19:29:47.890Z,67.92
2018-09-27T19:32:15.604Z,68.16
2018-09-27T19:34:43.217Z,69.39
2018-09-27T19:37:10.944Z,70.01
2018-09-27T19:39:38.704Z,69.93
2018-09-27T19:42:06.412Z,70.08
2018-09-27T19:44:34.181Z,69.86
2018-09-27T19:47:01.822Z,70.97
2018-09-27T19:49:29.647Z,71.22
2018-09-27T19:51:57.447Z,71.17
2018-09-27T19:54:25.065Z,70.86
2018-09-27T19:56:52.815Z,71.42
2018-09-27T19:59:20.491Z,70.93
2018-09-27T20:01:48.659Z,71.18
2018-09-27T20:04:16.908Z,71.03
2018-09-27T20:06:44.691Z,70.52
2018-09-27T20:09:13.359Z,70.61
2018-09-27T20:11:41.537Z,69.89
2018-09-27T20:14:09.615Z,68.90
2018-09-27T20:16:37.486Z,68.66
2018-09-27T20:19:05.311Z,68.12
2018-09-27T20:21:32.978Z,68.61
2018-09-27T20:24:00.672Z,67.65
2018-09-27T20:26:28.381Z,67.16
2018-09-27T20:28:56.032Z,67.69
2018-09-27T20:31:23.764Z,67.54
2018-09-27T20:33:51.586Z,67.10
2018-09-27T20:36:19.248Z,67.08
2018-09-27T20:38:46.944Z,67.06
2018-09-27T20:41:14.620Z,66.49
2018-09-27T20:43:42.318Z,65.95
2018-09-27T20:46:09.925Z,66.30
2018-09-27T20:48:37.570Z,66.31
2018-09-27T20:51:05.340Z,66.40
2018-09-27T20:53:33.014Z,66.54
2018-09-27T20:56:00.730Z,66.70
2018-09-27T20:58:28.377Z,66.09
2018-09-27T21:00:56.097Z,65.96
2018-09-27T21:03:23.813Z,67.03
2018-09-27T21:05:51.557Z,66.70
2018-09-27T21:08:19.327Z,68.23
2018-09-27T21:10:46.941Z,67.34
2018-09-27T21:13:14.639Z,67.73
2018-09-27T21:15:42.375Z,67.56
2018-09-27T21:18:10.075Z,67.76
2018-09-27T21:20:37.849Z,68.46
2018-09-27T21:23:05.609Z,68.60
2018-09-27T21:25:33.311Z,68.39
2018-09-27T21:28:00.992Z,68.62
2018-09-27T21:30:28.805Z,69.94
2018-09-27T21:32:56.453Z,69.78
2018-09-27T21:35:24.108Z,69.56
2018-09-27T21:37:51.959Z,69.50
2018-09-27T21:40:19.652Z,69.80
2018-09-27T21:42:47.282Z,69.11
2018-09-27T21:45:14.890Z,69.19
2018-09-27T21:47:42.537Z,69.85
2018-09-27T21:50:10.321Z,69.54
2018-09-27T21:52:37.854Z,69.96
2018-09-27T21:55:05.506Z,69.83
2018-09-27T21:57:33.068Z,70.18
2018-09-27T22:00:00.680Z,69.65
2018-09-27T22:02:28.314Z,69.09
2018-09-27T22:04:56.045Z,69.55
2018-09-27T22:07:25.529Z,69.52
2018-09-27T22:09:54.568Z,70.04
2018-09-27T22:12:22.220Z,70.26
2018-09-27T22:14:49.901Z,70.71
2018-09-27T22:17:17.576Z,70.55
2018-09-27T22:19:45.231Z,70.45
2018-09-27T22:22:12.908Z,70.89
2018-09-27T22:24:40.542Z,70.18
2018-09-27T22:27:08.318Z,69.76
2018-09-27T22:29:35.908Z,69.75
2018-09-27T22:32:03.595Z,70.36
2018-09-27T22:34:31.213Z,70.63
2018-09-27T22:36:58.848Z,70.45
2018-09-27T22:39:26.420Z,70.30
2018-09-27T22:41:54.076Z,70.18
2018-09-27T22:44:22.028Z,69.48
2018-09-27T22:46:49.657Z,70.20
2018-09-27T22:49:17.584Z,70.41
2018-09-27T22:51:45.259Z,70.77
2018-09-27T22:54:13.413Z,71.08
2018-09-27T22:56:41.073Z,71.55
2018-09-27T22:59:09.003Z,71.49
2018-09-27T23:01:36.650Z,71.49
2018-09-27T23:04:04.429Z,71.52
2018-09-27T23:06:32.804Z,70.94
2018-09-27T23:09:00.405Z,70.96
2018-09-27T23:11:32.385Z,70.88
2018-09-27T23:14:01.398Z,71.95
2018-09-27T23:16:29.162Z,72.29
2018-09-27T23:18:56.785Z,72.36
2018-09-27T23:21:24.376Z,72.83
2018-09-27T23:23:52.584Z,72.22
2018-09-27T23:26:20.278Z,71.93
2018-09-27T23:28:47.908Z,71.74
2018-09-27T23:31:15.541Z,71.20
2018-09-27T23:33:43.217Z,70.96
2018-09-27T23:36:11.155Z,70.57
2018-09-27T23:38:38.799Z,70.76
2018-09-27T23:41:06.564Z,70.63
2018-09-27T23:43:34.257Z,71.14
2018-09-27T23:46:01.845Z,71.65
2018-09-27T23:48:29.412Z,71.91
2018-09-27T23:50:57.077Z,71.59
2018-09-27T23:53:24.674Z,72.00
2018-09-27T23:55:52.558Z,71.69
2018-09-27T23:58:20.153Z,71.82
